sensor_id;sensor_type;location;lat;lon;timestamp;pressure;altitude;pressure_sealevel;temperature;humidity
77321;BME280;66382;52.252;8.780;2023-06-24T00:00:16;101444.50;;;17.50;65.67
77321;BME280;66382;52.252;8.780;2023-06-24T00:02:42;101461.59;;;17.50;66.36
77321;BME280;66382;52.252;8.780;2023-06-24T00:05:08;101459.72;;;17.44;64.99
77321;BME280;66382;52.252;8.780;2023-06-24T00:07:34;101459.72;;;17.37;65.08
77321;BME280;66382;52.252;8.780;2023-06-24T00:10:01;101462.03;;;17.27;65.26
77321;BME280;66382;52.252;8.780;2023-06-24T00:12:26;101471.63;;;17.23;65.84
77321;BME280;66382;52.252;8.780;2023-06-24T00:14:52;101473.91;;;17.19;65.23
77321;BME280;66382;52.252;8.780;2023-06-24T00:17:18;101459.97;;;17.09;66.59
77321;BME280;66382;52.252;8.780;2023-06-24T00:19:43;101466.41;;;17.15;66.09
77321;BME280;66382;52.252;8.780;2023-06-24T00:22:09;101466.84;;;17.12;66.57
77321;BME280;66382;52.252;8.780;2023-06-24T00:24:35;101472.03;;;17.13;66.02
77321;BME280;66382;52.252;8.780;2023-06-24T00:27:02;101464.13;;;17.05;66.03
77321;BME280;66382;52.252;8.780;2023-06-24T00:29:28;101461.00;;;17.02;65.41
77321;BME280;66382;52.252;8.780;2023-06-24T00:31:54;101458.06;;;16.90;65.52
77321;BME280;66382;52.252;8.780;2023-06-24T00:34:20;101448.69;;;16.86;65.77
77321;BME280;66382;52.252;8.780;2023-06-24T00:36:45;101453.47;;;16.84;65.96
77321;BME280;66382;52.252;8.780;2023-06-24T00:39:11;101457.41;;;16.81;66.44
77321;BME280;66382;52.252;8.780;2023-06-24T00:41:37;101459.31;;;16.81;66.14
77321;BME280;66382;52.252;8.780;2023-06-24T00:44:04;101460.97;;;16.82;66.89
77321;BME280;66382;52.252;8.780;2023-06-24T00:46:30;101463.69;;;16.82;66.87
77321;BME280;66382;52.252;8.780;2023-06-24T00:48:56;101469.50;;;16.79;66.07
77321;BME280;66382;52.252;8.780;2023-06-24T00:51:22;101458.84;;;16.77;67.26
77321;BME280;66382;52.252;8.780;2023-06-24T00:53:48;101459.06;;;16.75;66.66
77321;BME280;66382;52.252;8.780;2023-06-24T00:56:16;101460.31;;;16.73;67.44
77321;BME280;66382;52.252;8.780;2023-06-24T00:58:42;101453.00;;;16.67;66.89
77321;BME280;66382;52.252;8.780;2023-06-24T01:01:09;101472.78;;;16.74;67.26
77321;BME280;66382;52.252;8.780;2023-06-24T01:03:36;101471.97;;;16.73;68.03
77321;BME280;66382;52.252;8.780;2023-06-24T01:06:02;101465.91;;;16.71;68.07
77321;BME280;66382;52.252;8.780;2023-06-24T01:08:28;101470.31;;;16.72;68.23
77321;BME280;66382;52.252;8.780;2023-06-24T01:10:54;101473.19;;;16.71;68.06
77321;BME280;66382;52.252;8.780;2023-06-24T01:13:20;101472.38;;;16.70;68.18
77321;BME280;66382;52.252;8.780;2023-06-24T01:15:47;101472.38;;;16.70;68.79
77321;BME280;66382;52.252;8.780;2023-06-24T01:18:21;101469.88;;;16.69;67.52
77321;BME280;66382;52.252;8.780;2023-06-24T01:20:54;101466.94;;;16.64;67.59
77321;BME280;66382;52.252;8.780;2023-06-24T01:23:37;101462.16;;;16.66;67.14
77321;BME280;66382;52.252;8.780;2023-06-24T01:26:20;101466.09;;;16.63;66.57
77321;BME280;66382;52.252;8.780;2023-06-24T01:29:09;101461.53;;;16.57;67.02
77321;BME280;66382;52.252;8.780;2023-06-24T01:31:45;101466.31;;;16.55;66.75
77321;BME280;66382;52.252;8.780;2023-06-24T01:34:22;101463.56;;;16.48;66.18
77321;BME280;66382;52.252;8.780;2023-06-24T01:36:57;101459.59;;;16.38;67.14
77321;BME280;66382;52.252;8.780;2023-06-24T01:39:27;101464.78;;;16.32;66.68
77321;BME280;66382;52.252;8.780;2023-06-24T01:42:03;101458.28;;;16.27;67.07
77321;BME280;66382;52.252;8.780;2023-06-24T01:44:33;101465.59;;;16.26;67.90
77321;BME280;66382;52.252;8.780;2023-06-24T01:47:03;101478.09;;;16.27;67.53
77321;BME280;66382;52.252;8.780;2023-06-24T01:49:31;101470.34;;;16.24;67.79
77321;BME280;66382;52.252;8.780;2023-06-24T01:51:58;101479.53;;;16.23;67.66
77321;BME280;66382;52.252;8.780;2023-06-24T01:54:26;101487.00;;;16.21;67.70
77321;BME280;66382;52.252;8.780;2023-06-24T01:56:55;101490.53;;;16.22;67.66
77321;BME280;66382;52.252;8.780;2023-06-24T01:59:23;101475.13;;;16.16;68.35
77321;BME280;66382;52.252;8.780;2023-06-24T02:01:50;101484.50;;;16.20;67.38
77321;BME280;66382;52.252;8.780;2023-06-24T02:04:19;101487.59;;;16.10;67.33
77321;BME280;66382;52.252;8.780;2023-06-24T02:06:46;101479.44;;;16.03;67.92
77321;BME280;66382;52.252;8.780;2023-06-24T02:09:15;101483.19;;;16.02;67.12
77321;BME280;66382;52.252;8.780;2023-06-24T02:11:44;101482.31;;;15.95;67.67
77321;BME280;66382;52.252;8.780;2023-06-24T02:14:11;101482.09;;;15.90;68.34
77321;BME280;66382;52.252;8.780;2023-06-24T02:16:38;101485.41;;;15.92;68.82
77321;BME280;66382;52.252;8.780;2023-06-24T02:19:06;101484.56;;;15.91;67.49
77321;BME280;66382;52.252;8.780;2023-06-24T02:21:34;101464.31;;;15.74;67.37
77321;BME280;66382;52.252;8.780;2023-06-24T02:24:01;101479.97;;;15.85;67.73
77321;BME280;66382;52.252;8.780;2023-06-24T02:26:28;101481.41;;;15.81;68.26
77321;BME280;66382;52.252;8.780;2023-06-24T02:28:54;101475.59;;;15.84;68.93
77321;BME280;66382;52.252;8.780;2023-06-24T02:31:21;101470.19;;;15.84;68.49
77321;BME280;66382;52.252;8.780;2023-06-24T02:33:46;101483.31;;;15.87;68.26
77321;BME280;66382;52.252;8.780;2023-06-24T02:36:12;101480.81;;;15.86;68.79
77321;BME280;66382;52.252;8.780;2023-06-24T02:38:39;101479.53;;;15.82;67.83
77321;BME280;66382;52.252;8.780;2023-06-24T02:41:05;101486.56;;;15.76;67.85
77321;BME280;66382;52.252;8.780;2023-06-24T02:43:32;101478.41;;;15.69;68.10
77321;BME280;66382;52.252;8.780;2023-06-24T02:45:58;101493.03;;;15.75;68.30
77321;BME280;66382;52.252;8.780;2023-06-24T02:48:25;101494.03;;;15.74;68.39
77321;BME280;66382;52.252;8.780;2023-06-24T02:50:51;101484.63;;;15.70;68.19
77321;BME280;66382;52.252;8.780;2023-06-24T02:53:17;101490.81;;;15.64;68.31
77321;BME280;66382;52.252;8.780;2023-06-24T02:55:45;101482.22;;;15.54;68.11
77321;BME280;66382;52.252;8.780;2023-06-24T02:58:12;101491.16;;;15.54;68.36
77321;BME280;66382;52.252;8.780;2023-06-24T03:00:38;101481.59;;;15.52;68.31
77321;BME280;66382;52.252;8.780;2023-06-24T03:03:05;101485.34;;;15.51;68.49
77321;BME280;66382;52.252;8.780;2023-06-24T03:05:32;101492.81;;;15.55;68.77
77321;BME280;66382;52.252;8.780;2023-06-24T03:07:59;101486.59;;;15.55;69.08
77321;BME280;66382;52.252;8.780;2023-06-24T03:10:25;101491.00;;;15.56;68.27
77321;BME280;66382;52.252;8.780;2023-06-24T03:12:52;101501.78;;;15.56;68.23
77321;BME280;66382;52.252;8.780;2023-06-24T03:15:18;101509.66;;;15.51;69.01
77321;BME280;66382;52.252;8.780;2023-06-24T03:17:44;101510.28;;;15.53;69.07
77321;BME280;66382;52.252;8.780;2023-06-24T03:20:10;101505.91;;;15.52;68.62
77321;BME280;66382;52.252;8.780;2023-06-24T03:22:36;101506.09;;;15.50;68.70
77321;BME280;66382;52.252;8.780;2023-06-24T03:25:02;101508.63;;;15.52;68.99
77321;BME280;66382;52.252;8.780;2023-06-24T03:27:28;101511.97;;;15.54;68.96
77321;BME280;66382;52.252;8.780;2023-06-24T03:29:55;101518.00;;;15.56;68.56
77321;BME280;66382;52.252;8.780;2023-06-24T03:32:21;101513.44;;;15.56;69.42
77321;BME280;66382;52.252;8.780;2023-06-24T03:34:46;101515.31;;;15.56;69.45
77321;BME280;66382;52.252;8.780;2023-06-24T03:37:12;101507.03;;;15.64;69.55
77321;BME280;66382;52.252;8.780;2023-06-24T03:39:38;101508.69;;;15.65;69.40
77321;BME280;66382;52.252;8.780;2023-06-24T03:42:04;101516.25;;;15.69;70.04
77321;BME280;66382;52.252;8.780;2023-06-24T03:44:30;101508.59;;;15.73;70.11
77321;BME280;66382;52.252;8.780;2023-06-24T03:46:57;101515.47;;;15.76;69.42
77321;BME280;66382;52.252;8.780;2023-06-24T03:49:22;101496.75;;;15.74;69.41
77321;BME280;66382;52.252;8.780;2023-06-24T03:51:48;101505.50;;;15.76;69.33
77321;BME280;66382;52.252;8.780;2023-06-24T03:54:14;101508.59;;;15.73;69.02
77321;BME280;66382;52.252;8.780;2023-06-24T03:56:40;101507.97;;;15.71;69.19
77321;BME280;66382;52.252;8.780;2023-06-24T03:59:05;101516.31;;;15.76;70.17
77321;BME280;66382;52.252;8.780;2023-06-24T04:01:31;101514.88;;;15.80;70.12
77321;BME280;66382;52.252;8.780;2023-06-24T04:03:58;101515.50;;;15.82;70.12
77321;BME280;66382;52.252;8.780;2023-06-24T04:06:24;101513.44;;;15.84;68.65
77321;BME280;66382;52.252;8.780;2023-06-24T04:08:51;101512.63;;;15.84;69.09
77321;BME280;66382;52.252;8.780;2023-06-24T04:11:17;101507.19;;;15.84;69.79
77321;BME280;66382;52.252;8.780;2023-06-24T04:13:44;101521.19;;;15.87;70.04
77321;BME280;66382;52.252;8.780;2023-06-24T04:16:09;101512.66;;;15.90;69.66
77321;BME280;66382;52.252;8.780;2023-06-24T04:18:35;101508.25;;;15.89;68.80
77321;BME280;66382;52.252;8.780;2023-06-24T04:21:02;101518.06;;;15.90;69.19
77321;BME280;66382;52.252;8.780;2023-06-24T04:23:28;101516.84;;;15.93;70.35
77321;BME280;66382;52.252;8.780;2023-06-24T04:25:54;101510.63;;;15.99;70.69
77321;BME280;66382;52.252;8.780;2023-06-24T04:28:19;101517.53;;;16.08;70.22
77321;BME280;66382;52.252;8.780;2023-06-24T04:30:45;101508.81;;;16.13;70.11
77321;BME280;66382;52.252;8.780;2023-06-24T04:33:11;101513.88;;;16.23;70.64
77321;BME280;66382;52.252;8.780;2023-06-24T04:35:36;101522.25;;;16.34;70.26
77321;BME280;66382;52.252;8.780;2023-06-24T04:38:03;101526.28;;;16.52;70.55
77321;BME280;66382;52.252;8.780;2023-06-24T04:40:29;101527.88;;;16.94;70.63
77321;BME280;66382;52.252;8.780;2023-06-24T04:42:55;101520.00;;;17.46;70.63
77321;BME280;66382;52.252;8.780;2023-06-24T04:45:20;101519.75;;;17.94;70.09
77321;BME280;66382;52.252;8.780;2023-06-24T04:47:46;101523.31;;;18.46;69.96
77321;BME280;66382;52.252;8.780;2023-06-24T04:50:12;101523.91;;;18.94;68.87
77321;BME280;66382;52.252;8.780;2023-06-24T04:52:38;101523.13;;;19.43;69.02
77321;BME280;66382;52.252;8.780;2023-06-24T04:55:06;101519.03;;;19.84;67.75
77321;BME280;66382;52.252;8.780;2023-06-24T04:57:32;101517.59;;;20.18;67.07
77321;BME280;66382;52.252;8.780;2023-06-24T04:59:58;101511.09;;;20.50;65.94
77321;BME280;66382;52.252;8.780;2023-06-24T05:02:24;101513.84;;;20.68;65.31
77321;BME280;66382;52.252;8.780;2023-06-24T05:04:51;101516.63;;;20.80;64.49
77321;BME280;66382;52.252;8.780;2023-06-24T05:07:17;101515.06;;;20.72;63.33
77321;BME280;66382;52.252;8.780;2023-06-24T05:09:44;101513.13;;;20.43;63.64
77321;BME280;66382;52.252;8.780;2023-06-24T05:12:12;101520.84;;;20.09;63.29
77321;BME280;66382;52.252;8.780;2023-06-24T05:14:37;101524.53;;;19.77;64.09
77321;BME280;66382;52.252;8.780;2023-06-24T05:17:03;101520.44;;;19.68;64.43
77321;BME280;66382;52.252;8.780;2023-06-24T05:19:29;101519.25;;;19.58;64.25
77321;BME280;66382;52.252;8.780;2023-06-24T05:21:55;101518.53;;;19.44;64.29
77321;BME280;66382;52.252;8.780;2023-06-24T05:24:21;101517.44;;;19.26;64.88
77321;BME280;66382;52.252;8.780;2023-06-24T05:26:49;101517.69;;;19.18;64.51
77321;BME280;66382;52.252;8.780;2023-06-24T05:29:17;101527.59;;;19.06;64.45
77321;BME280;66382;52.252;8.780;2023-06-24T05:31:43;101524.53;;;18.96;64.90
77321;BME280;66382;52.252;8.780;2023-06-24T05:34:09;101530.00;;;18.89;64.80
77321;BME280;66382;52.252;8.780;2023-06-24T05:36:35;101519.41;;;18.74;64.82
77321;BME280;66382;52.252;8.780;2023-06-24T05:39:00;101519.91;;;18.64;65.29
77321;BME280;66382;52.252;8.780;2023-06-24T05:41:26;101503.28;;;18.47;65.30
77321;BME280;66382;52.252;8.780;2023-06-24T05:44:01;101512.06;;;18.43;65.63
77321;BME280;66382;52.252;8.780;2023-06-24T05:46:28;101511.44;;;18.41;66.26
77321;BME280;66382;52.252;8.780;2023-06-24T05:48:54;101520.59;;;18.46;66.06
77321;BME280;66382;52.252;8.780;2023-06-24T05:51:20;101524.38;;;18.45;65.69
77321;BME280;66382;52.252;8.780;2023-06-24T05:53:45;101523.56;;;18.45;66.13
77321;BME280;66382;52.252;8.780;2023-06-24T05:56:11;101534.16;;;18.46;66.05
77321;BME280;66382;52.252;8.780;2023-06-24T05:58:37;101534.59;;;18.50;66.00
77321;BME280;66382;52.252;8.780;2023-06-24T06:01:05;101532.88;;;18.56;65.96
77321;BME280;66382;52.252;8.780;2023-06-24T06:03:32;101534.97;;;18.54;65.36
77321;BME280;66382;52.252;8.780;2023-06-24T06:05:58;101536.22;;;18.58;66.09
77321;BME280;66382;52.252;8.780;2023-06-24T06:08:23;101526.81;;;18.60;66.39
77321;BME280;66382;52.252;8.780;2023-06-24T06:10:49;101519.03;;;18.64;66.45
77321;BME280;66382;52.252;8.780;2023-06-24T06:13:15;101527.00;;;18.65;66.62
77321;BME280;66382;52.252;8.780;2023-06-24T06:15:40;101518.22;;;18.63;65.92
77321;BME280;66382;52.252;8.780;2023-06-24T06:18:06;101521.38;;;18.60;65.98
77321;BME280;66382;52.252;8.780;2023-06-24T06:20:33;101524.31;;;18.59;65.50
77321;BME280;66382;52.252;8.780;2023-06-24T06:22:59;101519.31;;;18.56;65.72
77321;BME280;66382;52.252;8.780;2023-06-24T06:25:25;101528.69;;;18.60;66.05
77321;BME280;66382;52.252;8.780;2023-06-24T06:27:50;101533.44;;;18.71;65.76
77321;BME280;66382;52.252;8.780;2023-06-24T06:30:16;101527.78;;;18.73;66.16
77321;BME280;66382;52.252;8.780;2023-06-24T06:32:42;101535.53;;;18.76;66.05
77321;BME280;66382;52.252;8.780;2023-06-24T06:35:08;101532.16;;;18.80;65.44
77321;BME280;66382;52.252;8.780;2023-06-24T06:37:35;101534.06;;;18.80;66.33
77321;BME280;66382;52.252;8.780;2023-06-24T06:40:01;101531.50;;;18.85;66.04
77321;BME280;66382;52.252;8.780;2023-06-24T06:42:26;101536.72;;;18.86;66.61
77321;BME280;66382;52.252;8.780;2023-06-24T06:44:52;101531.69;;;18.90;66.25
77321;BME280;66382;52.252;8.780;2023-06-24T06:47:18;101532.69;;;18.96;65.90
77321;BME280;66382;52.252;8.780;2023-06-24T06:49:43;101531.84;;;19.02;66.19
77321;BME280;66382;52.252;8.780;2023-06-24T06:52:09;101533.44;;;19.09;65.75
77321;BME280;66382;52.252;8.780;2023-06-24T06:54:36;101528.38;;;19.13;65.38
77321;BME280;66382;52.252;8.780;2023-06-24T06:57:02;101529.00;;;19.15;65.00
77321;BME280;66382;52.252;8.780;2023-06-24T06:59:28;101526.28;;;19.15;65.28
77321;BME280;66382;52.252;8.780;2023-06-24T07:01:54;101526.25;;;19.22;65.38
77321;BME280;66382;52.252;8.780;2023-06-24T07:04:19;101529.34;;;19.25;65.02
77321;BME280;66382;52.252;8.780;2023-06-24T07:06:45;101526.63;;;19.25;65.13
77321;BME280;66382;52.252;8.780;2023-06-24T07:09:11;101523.47;;;19.28;66.21
77321;BME280;66382;52.252;8.780;2023-06-24T07:11:38;101527.25;;;19.27;65.31
77321;BME280;66382;52.252;8.780;2023-06-24T07:14:04;101538.25;;;19.39;65.36
77321;BME280;66382;52.252;8.780;2023-06-24T07:16:29;101536.50;;;19.45;64.93
77321;BME280;66382;52.252;8.780;2023-06-24T07:18:55;101540.69;;;19.47;64.79
77321;BME280;66382;52.252;8.780;2023-06-24T07:21:21;101530.41;;;19.49;64.99
77321;BME280;66382;52.252;8.780;2023-06-24T07:23:46;101535.22;;;19.47;64.83
77321;BME280;66382;52.252;8.780;2023-06-24T07:26:12;101544.53;;;19.58;65.04
77321;BME280;66382;52.252;8.780;2023-06-24T07:28:39;101540.94;;;19.64;65.70
77321;BME280;66382;52.252;8.780;2023-06-24T07:31:05;101539.03;;;19.71;64.93
77321;BME280;66382;52.252;8.780;2023-06-24T07:33:31;101542.94;;;19.75;64.92
77321;BME280;66382;52.252;8.780;2023-06-24T07:35:56;101558.56;;;19.87;65.27
77321;BME280;66382;52.252;8.780;2023-06-24T07:38:22;101548.44;;;19.94;65.19
77321;BME280;66382;52.252;8.780;2023-06-24T07:40:48;101555.00;;;20.05;64.77
77321;BME280;66382;52.252;8.780;2023-06-24T07:43:14;101542.16;;;20.12;65.01
77321;BME280;66382;52.252;8.780;2023-06-24T07:45:41;101550.72;;;20.15;64.87
77321;BME280;66382;52.252;8.780;2023-06-24T07:48:07;101546.00;;;20.23;64.98
77321;BME280;66382;52.252;8.780;2023-06-24T07:50:33;101548.66;;;20.29;65.08
77321;BME280;66382;52.252;8.780;2023-06-24T07:52:58;101555.25;;;20.40;64.87
77321;BME280;66382;52.252;8.780;2023-06-24T07:55:24;101552.22;;;20.48;65.29
77321;BME280;66382;52.252;8.780;2023-06-24T07:57:50;101547.44;;;20.62;64.69
77321;BME280;66382;52.252;8.780;2023-06-24T08:00:16;101546.91;;;20.72;65.11
77321;BME280;66382;52.252;8.780;2023-06-24T08:02:43;101547.03;;;20.77;64.78
77321;BME280;66382;52.252;8.780;2023-06-24T08:05:09;101542.94;;;20.86;64.73
77321;BME280;66382;52.252;8.780;2023-06-24T08:07:35;101542.75;;;20.99;65.03
77321;BME280;66382;52.252;8.780;2023-06-24T08:10:01;101543.38;;;21.13;64.99
77321;BME280;66382;52.252;8.780;2023-06-24T08:12:26;101540.28;;;21.21;63.88
77321;BME280;66382;52.252;8.780;2023-06-24T08:14:52;101539.84;;;21.24;63.53
77321;BME280;66382;52.252;8.780;2023-06-24T08:17:18;101540.19;;;21.28;63.87
77321;BME280;66382;52.252;8.780;2023-06-24T08:19:45;101534.38;;;21.36;63.68
77321;BME280;66382;52.252;8.780;2023-06-24T08:22:11;101529.34;;;21.52;63.85
77321;BME280;66382;52.252;8.780;2023-06-24T08:24:37;101532.78;;;21.71;63.58
77321;BME280;66382;52.252;8.780;2023-06-24T08:27:03;101527.81;;;21.91;63.58
77321;BME280;66382;52.252;8.780;2023-06-24T08:29:29;101531.44;;;22.20;63.30
77321;BME280;66382;52.252;8.780;2023-06-24T08:31:54;101518.91;;;22.48;63.47
77321;BME280;66382;52.252;8.780;2023-06-24T08:34:20;101522.09;;;22.85;64.12
77321;BME280;66382;52.252;8.780;2023-06-24T08:36:48;101522.97;;;23.36;65.32
77321;BME280;66382;52.252;8.780;2023-06-24T08:39:14;101518.38;;;23.93;65.09
77321;BME280;66382;52.252;8.780;2023-06-24T08:41:40;101519.63;;;24.46;65.80
77321;BME280;66382;52.252;8.780;2023-06-24T08:44:06;101521.28;;;25.01;65.62
77321;BME280;66382;52.252;8.780;2023-06-24T08:46:32;101509.22;;;25.72;61.09
77321;BME280;66382;52.252;8.780;2023-06-24T08:49:02;101510.06;;;26.30;64.25
77321;BME280;66382;52.252;8.780;2023-06-24T08:51:37;101510.22;;;26.76;63.55
77321;BME280;66382;52.252;8.780;2023-06-24T08:54:07;101508.31;;;27.02;62.37
77321;BME280;66382;52.252;8.780;2023-06-24T08:56:34;101511.34;;;27.42;62.60
77321;BME280;66382;52.252;8.780;2023-06-24T08:59:00;101511.56;;;27.81;61.49
77321;BME280;66382;52.252;8.780;2023-06-24T09:01:27;101513.69;;;28.10;61.83
77321;BME280;66382;52.252;8.780;2023-06-24T09:03:52;101505.00;;;28.42;59.97
77321;BME280;66382;52.252;8.780;2023-06-24T09:06:18;101502.41;;;28.66;60.95
77321;BME280;66382;52.252;8.780;2023-06-24T09:08:52;101503.84;;;28.93;63.03
77321;BME280;66382;52.252;8.780;2023-06-24T09:11:23;101498.16;;;29.19;60.69
77321;BME280;66382;52.252;8.780;2023-06-24T09:13:54;101494.72;;;29.32;59.00
77321;BME280;66382;52.252;8.780;2023-06-24T09:16:20;101499.03;;;29.43;57.67
77321;BME280;66382;52.252;8.780;2023-06-24T09:18:47;101503.78;;;29.67;58.69
77321;BME280;66382;52.252;8.780;2023-06-24T09:21:13;101496.63;;;29.90;56.61
77321;BME280;66382;52.252;8.780;2023-06-24T09:23:39;101487.63;;;30.03;58.17
77321;BME280;66382;52.252;8.780;2023-06-24T09:26:05;101490.06;;;30.29;56.71
77321;BME280;66382;52.252;8.780;2023-06-24T09:28:36;101492.03;;;30.47;57.10
77321;BME280;66382;52.252;8.780;2023-06-24T09:31:09;101491.06;;;30.57;59.74
77321;BME280;66382;52.252;8.780;2023-06-24T09:33:35;101494.28;;;30.64;57.50
77321;BME280;66382;52.252;8.780;2023-06-24T09:36:02;101485.91;;;30.69;55.98
77321;BME280;66382;52.252;8.780;2023-06-24T09:38:34;101482.66;;;30.81;58.07
77321;BME280;66382;52.252;8.780;2023-06-24T09:41:02;101482.88;;;31.03;54.57
77321;BME280;66382;52.252;8.780;2023-06-24T09:43:28;101479.84;;;31.19;55.34
77321;BME280;66382;52.252;8.780;2023-06-24T09:45:55;101475.66;;;31.35;57.17
77321;BME280;66382;52.252;8.780;2023-06-24T09:48:21;101473.75;;;31.49;55.64
77321;BME280;66382;52.252;8.780;2023-06-24T09:50:47;101473.69;;;31.68;54.94
77321;BME280;66382;52.252;8.780;2023-06-24T09:53:13;101470.28;;;31.85;54.83
77321;BME280;66382;52.252;8.780;2023-06-24T09:55:40;101468.34;;;31.86;50.97
77321;BME280;66382;52.252;8.780;2023-06-24T09:58:06;101467.00;;;31.97;54.90
77321;BME280;66382;52.252;8.780;2023-06-24T10:00:32;101453.81;;;32.17;52.64
77321;BME280;66382;52.252;8.780;2023-06-24T10:02:59;101454.50;;;32.36;52.99
77321;BME280;66382;52.252;8.780;2023-06-24T10:05:24;101448.19;;;32.58;52.37
77321;BME280;66382;52.252;8.780;2023-06-24T10:07:50;101451.66;;;32.64;52.96
77321;BME280;66382;52.252;8.780;2023-06-24T10:10:17;101450.53;;;32.65;51.37
77321;BME280;66382;52.252;8.780;2023-06-24T10:12:43;101449.22;;;32.48;50.96
77321;BME280;66382;52.252;8.780;2023-06-24T10:15:09;101442.75;;;32.39;52.03
77321;BME280;66382;52.252;8.780;2023-06-24T10:17:35;101439.38;;;32.42;52.19
77321;BME280;66382;52.252;8.780;2023-06-24T10:20:05;101439.97;;;32.39;53.45
77321;BME280;66382;52.252;8.780;2023-06-24T10:22:31;101433.22;;;32.31;50.52
77321;BME280;66382;52.252;8.780;2023-06-24T10:25:00;101438.44;;;32.10;49.62
77321;BME280;66382;52.252;8.780;2023-06-24T10:27:26;101434.66;;;31.79;48.16
77321;BME280;66382;52.252;8.780;2023-06-24T10:29:52;101432.41;;;31.53;48.21
77321;BME280;66382;52.252;8.780;2023-06-24T10:32:19;101439.00;;;31.24;47.25
77321;BME280;66382;52.252;8.780;2023-06-24T10:34:47;101425.81;;;30.89;48.88
77321;BME280;66382;52.252;8.780;2023-06-24T10:37:21;101426.50;;;30.61;49.34
77321;BME280;66382;52.252;8.780;2023-06-24T10:39:50;101417.97;;;30.39;49.38
77321;BME280;66382;52.252;8.780;2023-06-24T10:42:38;101417.59;;;30.08;50.49
77321;BME280;66382;52.252;8.780;2023-06-24T10:45:18;101415.16;;;29.82;48.38
77321;BME280;66382;52.252;8.780;2023-06-24T10:47:45;101411.06;;;29.55;47.84
77321;BME280;66382;52.252;8.780;2023-06-24T10:50:12;101407.94;;;29.38;48.30
77321;BME280;66382;52.252;8.780;2023-06-24T10:52:41;101413.31;;;29.24;48.78
77321;BME280;66382;52.252;8.780;2023-06-24T10:55:08;101412.06;;;29.11;49.24
77321;BME280;66382;52.252;8.780;2023-06-24T10:57:33;101408.56;;;29.01;49.65
77321;BME280;66382;52.252;8.780;2023-06-24T11:00:00;101404.00;;;28.86;47.71
77321;BME280;66382;52.252;8.780;2023-06-24T11:02:27;101405.63;;;28.58;49.35
77321;BME280;66382;52.252;8.780;2023-06-24T11:04:54;101398.81;;;28.45;49.89
77321;BME280;66382;52.252;8.780;2023-06-24T11:07:21;101404.91;;;28.37;50.01
77321;BME280;66382;52.252;8.780;2023-06-24T11:09:53;101401.66;;;28.29;51.28
77321;BME280;66382;52.252;8.780;2023-06-24T11:12:19;101385.34;;;28.33;49.80
77321;BME280;66382;52.252;8.780;2023-06-24T11:14:45;101388.97;;;28.28;49.95
77321;BME280;66382;52.252;8.780;2023-06-24T11:17:11;101393.72;;;28.18;49.70
77321;BME280;66382;52.252;8.780;2023-06-24T11:19:36;101390.72;;;28.09;50.17
77321;BME280;66382;52.252;8.780;2023-06-24T11:22:03;101382.84;;;27.97;50.80
77321;BME280;66382;52.252;8.780;2023-06-24T11:24:29;101385.91;;;27.85;48.87
77321;BME280;66382;52.252;8.780;2023-06-24T11:26:56;101379.59;;;27.75;51.25
77321;BME280;66382;52.252;8.780;2023-06-24T11:29:22;101379.91;;;27.68;51.06
77321;BME280;66382;52.252;8.780;2023-06-24T11:31:48;101374.97;;;27.65;49.60
77321;BME280;66382;52.252;8.780;2023-06-24T11:34:14;101372.47;;;27.69;50.55
77321;BME280;66382;52.252;8.780;2023-06-24T11:36:40;101379.09;;;27.67;50.92
77321;BME280;66382;52.252;8.780;2023-06-24T11:39:06;101379.38;;;27.61;50.14
77321;BME280;66382;52.252;8.780;2023-06-24T11:41:32;101379.16;;;27.47;49.68
77321;BME280;66382;52.252;8.780;2023-06-24T11:43:59;101377.78;;;27.39;50.43
77321;BME280;66382;52.252;8.780;2023-06-24T11:46:25;101380.56;;;27.39;50.01
77321;BME280;66382;52.252;8.780;2023-06-24T11:48:51;101382.75;;;27.37;50.62
77321;BME280;66382;52.252;8.780;2023-06-24T11:51:17;101372.84;;;27.36;51.66
77321;BME280;66382;52.252;8.780;2023-06-24T11:53:44;101370.66;;;27.33;50.11
77321;BME280;66382;52.252;8.780;2023-06-24T11:56:09;101371.75;;;27.32;49.92
77321;BME280;66382;52.252;8.780;2023-06-24T11:58:35;101349.50;;;27.18;51.20
77321;BME280;66382;52.252;8.780;2023-06-24T12:01:03;101370.69;;;27.28;50.37
77321;BME280;66382;52.252;8.780;2023-06-24T12:03:29;101357.50;;;27.25;49.87
77321;BME280;66382;52.252;8.780;2023-06-24T12:05:55;101362.16;;;27.24;49.09
77321;BME280;66382;52.252;8.780;2023-06-24T12:08:21;101355.56;;;27.26;51.27
77321;BME280;66382;52.252;8.780;2023-06-24T12:10:46;101348.38;;;27.24;49.35
77321;BME280;66382;52.252;8.780;2023-06-24T12:13:12;101352.53;;;27.12;49.60
77321;BME280;66382;52.252;8.780;2023-06-24T12:15:38;101357.78;;;27.08;50.15
77321;BME280;66382;52.252;8.780;2023-06-24T12:18:05;101353.94;;;26.94;50.15
77321;BME280;66382;52.252;8.780;2023-06-24T12:20:31;101350.38;;;26.93;50.17
77321;BME280;66382;52.252;8.780;2023-06-24T12:22:57;101353.13;;;26.93;49.70
77321;BME280;66382;52.252;8.780;2023-06-24T12:25:22;101356.41;;;26.90;50.54
77321;BME280;66382;52.252;8.780;2023-06-24T12:27:49;101353.41;;;26.87;50.31
77321;BME280;66382;52.252;8.780;2023-06-24T12:30:16;101349.03;;;26.80;49.62
77321;BME280;66382;52.252;8.780;2023-06-24T12:32:42;101344.03;;;26.77;50.66
77321;BME280;66382;52.252;8.780;2023-06-24T12:35:10;101339.38;;;26.83;50.16
77321;BME280;66382;52.252;8.780;2023-06-24T12:37:36;101341.56;;;26.91;51.10
77321;BME280;66382;52.252;8.780;2023-06-24T12:40:02;101347.59;;;26.98;50.80
77321;BME280;66382;52.252;8.780;2023-06-24T12:42:28;101345.41;;;27.06;50.60
77321;BME280;66382;52.252;8.780;2023-06-24T12:44:54;101343.44;;;27.11;48.54
77321;BME280;66382;52.252;8.780;2023-06-24T12:47:20;101337.38;;;27.09;49.14